sensor_id;sensor_type;location;lat;lon;timestamp;P1;durP1;ratioP1;P2;durP2;ratioP2
33738;SDS011;20063;51.730;11.110;2023-03-03T00:00:44;45.15;;;23.52;;
33738;SDS011;20063;51.730;11.110;2023-03-03T00:03:11;46.03;;;24.10;;
33738;SDS011;20063;51.730;11.110;2023-03-03T00:05:42;42.88;;;22.05;;
33738;SDS011;20063;51.730;11.110;2023-03-03T00:08:08;44.67;;;23.15;;
33738;SDS011;20063;51.730;11.110;2023-03-03T00:10:34;40.95;;;21.55;;
33738;SDS011;20063;51.730;11.110;2023-03-03T00:13:01;40.88;;;22.85;;
33738;SDS011;20063;51.730;11.110;2023-03-03T00:15:27;37.38;;;21.13;;
33738;SDS011;20063;51.730;11.110;2023-03-03T00:17:54;38.33;;;20.95;;
33738;SDS011;20063;51.730;11.110;2023-03-03T00:20:34;38.08;;;20.60;;
33738;SDS011;20063;51.730;11.110;2023-03-03T00:23:45;41.00;;;22.77;;
33738;SDS011;20063;51.730;11.110;2023-03-03T00:26:14;39.42;;;21.35;;
33738;SDS011;20063;51.730;11.110;2023-03-03T00:29:23;35.53;;;19.25;;
33738;SDS011;20063;51.730;11.110;2023-03-03T00:32:09;37.42;;;20.00;;
33738;SDS011;20063;51.730;11.110;2023-03-03T00:38:13;36.90;;;19.42;;
33738;SDS011;20063;51.730;11.110;2023-03-03T00:40:41;34.35;;;18.63;;
33738;SDS011;20063;51.730;11.110;2023-03-03T00:43:23;38.10;;;20.70;;
33738;SDS011;20063;51.730;11.110;2023-03-03T00:45:52;39.85;;;22.13;;
33738;SDS011;20063;51.730;11.110;2023-03-03T00:50:47;36.63;;;19.95;;
33738;SDS011;20063;51.730;11.110;2023-03-03T00:53:14;37.13;;;19.15;;
33738;SDS011;20063;51.730;11.110;2023-03-03T00:55:44;34.00;;;18.98;;
33738;SDS011;20063;51.730;11.110;2023-03-03T00:58:11;38.35;;;19.42;;
33738;SDS011;20063;51.730;11.110;2023-03-03T01:00:37;30.85;;;18.35;;
33738;SDS011;20063;51.730;11.110;2023-03-03T01:03:05;35.03;;;17.27;;
33738;SDS011;20063;51.730;11.110;2023-03-03T01:05:32;31.48;;;16.98;;
33738;SDS011;20063;51.730;11.110;2023-03-03T01:07:59;31.55;;;18.38;;
33738;SDS011;20063;51.730;11.110;2023-03-03T01:10:25;32.97;;;17.90;;
33738;SDS011;20063;51.730;11.110;2023-03-03T01:12:54;32.60;;;17.90;;
33738;SDS011;20063;51.730;11.110;2023-03-03T01:15:21;28.33;;;15.68;;
33738;SDS011;20063;51.730;11.110;2023-03-03T01:17:47;36.25;;;18.70;;
33738;SDS011;20063;51.730;11.110;2023-03-03T01:20:13;37.65;;;20.02;;
33738;SDS011;20063;51.730;11.110;2023-03-03T01:22:43;40.50;;;20.38;;
33738;SDS011;20063;51.730;11.110;2023-03-03T01:25:08;36.33;;;19.70;;
33738;SDS011;20063;51.730;11.110;2023-03-03T01:27:34;31.95;;;18.80;;
33738;SDS011;20063;51.730;11.110;2023-03-03T01:30:01;34.67;;;19.77;;
33738;SDS011;20063;51.730;11.110;2023-03-03T01:32:28;36.15;;;19.55;;
33738;SDS011;20063;51.730;11.110;2023-03-03T01:34:53;40.13;;;20.42;;
33738;SDS011;20063;51.730;11.110;2023-03-03T01:37:19;37.33;;;19.67;;
33738;SDS011;20063;51.730;11.110;2023-03-03T01:39:49;32.80;;;18.13;;
33738;SDS011;20063;51.730;11.110;2023-03-03T01:42:15;43.75;;;20.52;;
33738;SDS011;20063;51.730;11.110;2023-03-03T01:44:41;33.45;;;19.08;;
33738;SDS011;20063;51.730;11.110;2023-03-03T01:47:14;32.78;;;18.67;;
33738;SDS011;20063;51.730;11.110;2023-03-03T01:49:48;34.90;;;19.05;;
33738;SDS011;20063;51.730;11.110;2023-03-03T01:54:53;33.28;;;17.80;;
33738;SDS011;20063;51.730;11.110;2023-03-03T01:57:23;33.15;;;17.90;;
33738;SDS011;20063;51.730;11.110;2023-03-03T01:59:52;33.95;;;18.90;;
33738;SDS011;20063;51.730;11.110;2023-03-03T02:02:20;35.78;;;18.30;;
33738;SDS011;20063;51.730;11.110;2023-03-03T02:04:48;31.70;;;18.63;;
33738;SDS011;20063;51.730;11.110;2023-03-03T02:07:14;35.00;;;18.38;;
33738;SDS011;20063;51.730;11.110;2023-03-03T02:12:20;27.73;;;16.52;;
33738;SDS011;20063;51.730;11.110;2023-03-03T02:14:49;40.80;;;17.20;;
33738;SDS011;20063;51.730;11.110;2023-03-03T02:17:15;30.17;;;16.42;;
33738;SDS011;20063;51.730;11.110;2023-03-03T02:22:16;30.80;;;16.67;;
33738;SDS011;20063;51.730;11.110;2023-03-03T02:24:50;33.67;;;17.02;;
33738;SDS011;20063;51.730;11.110;2023-03-03T02:27:21;27.98;;;16.52;;
33738;SDS011;20063;51.730;11.110;2023-03-03T02:29:47;28.67;;;16.27;;
33738;SDS011;20063;51.730;11.110;2023-03-03T02:32:12;37.63;;;17.73;;
33738;SDS011;20063;51.730;11.110;2023-03-03T02:34:48;29.30;;;16.75;;
33738;SDS011;20063;51.730;11.110;2023-03-03T02:37:15;30.25;;;16.90;;
33738;SDS011;20063;51.730;11.110;2023-03-03T02:39:42;30.38;;;16.17;;
33738;SDS011;20063;51.730;11.110;2023-03-03T02:42:15;31.38;;;17.77;;
33738;SDS011;20063;51.730;11.110;2023-03-03T02:44:47;31.17;;;17.88;;
33738;SDS011;20063;51.730;11.110;2023-03-03T02:47:13;35.97;;;19.10;;
33738;SDS011;20063;51.730;11.110;2023-03-03T02:49:38;30.65;;;17.60;;
33738;SDS011;20063;51.730;11.110;2023-03-03T02:52:05;34.35;;;18.88;;
33738;SDS011;20063;51.730;11.110;2023-03-03T02:54:35;33.45;;;16.15;;
33738;SDS011;20063;51.730;11.110;2023-03-03T02:57:01;25.13;;;14.57;;
33738;SDS011;20063;51.730;11.110;2023-03-03T02:59:28;39.17;;;16.92;;
33738;SDS011;20063;51.730;11.110;2023-03-03T03:01:53;28.17;;;15.85;;
33738;SDS011;20063;51.730;11.110;2023-03-03T03:04:24;25.55;;;15.82;;
33738;SDS011;20063;51.730;11.110;2023-03-03T03:06:50;27.50;;;14.98;;
33738;SDS011;20063;51.730;11.110;2023-03-03T03:09:17;27.42;;;16.60;;
33738;SDS011;20063;51.730;11.110;2023-03-03T03:11:45;29.25;;;15.98;;
33738;SDS011;20063;51.730;11.110;2023-03-03T03:14:11;28.65;;;16.40;;
33738;SDS011;20063;51.730;11.110;2023-03-03T03:16:37;29.77;;;16.50;;
33738;SDS011;20063;51.730;11.110;2023-03-03T03:19:03;27.45;;;15.80;;
33738;SDS011;20063;51.730;11.110;2023-03-03T03:21:29;25.45;;;14.93;;
33738;SDS011;20063;51.730;11.110;2023-03-03T03:23:55;25.23;;;14.82;;
33738;SDS011;20063;51.730;11.110;2023-03-03T03:26:21;25.48;;;15.43;;
33738;SDS011;20063;51.730;11.110;2023-03-03T03:28:47;25.60;;;14.43;;
33738;SDS011;20063;51.730;11.110;2023-03-03T03:31:13;22.23;;;13.52;;
33738;SDS011;20063;51.730;11.110;2023-03-03T03:33:39;28.98;;;16.98;;
33738;SDS011;20063;51.730;11.110;2023-03-03T03:36:04;29.33;;;16.30;;
33738;SDS011;20063;51.730;11.110;2023-03-03T03:38:31;29.50;;;16.33;;
33738;SDS011;20063;51.730;11.110;2023-03-03T03:40:57;32.38;;;17.08;;
33738;SDS011;20063;51.730;11.110;2023-03-03T03:43:23;25.33;;;14.98;;
33738;SDS011;20063;51.730;11.110;2023-03-03T03:45:49;23.02;;;14.88;;
33738;SDS011;20063;51.730;11.110;2023-03-03T03:48:14;27.98;;;15.48;;
33738;SDS011;20063;51.730;11.110;2023-03-03T03:50:40;26.65;;;14.82;;
33738;SDS011;20063;51.730;11.110;2023-03-03T03:53:06;25.35;;;14.15;;
33738;SDS011;20063;51.730;11.110;2023-03-03T03:55:32;24.98;;;15.00;;
33738;SDS011;20063;51.730;11.110;2023-03-03T03:57:58;22.17;;;13.65;;
33738;SDS011;20063;51.730;11.110;2023-03-03T04:00:23;26.15;;;14.68;;
33738;SDS011;20063;51.730;11.110;2023-03-03T04:02:50;25.80;;;14.27;;
33738;SDS011;20063;51.730;11.110;2023-03-03T04:05:16;27.38;;;15.18;;
33738;SDS011;20063;51.730;11.110;2023-03-03T04:07:42;23.98;;;14.35;;
33738;SDS011;20063;51.730;11.110;2023-03-03T04:10:08;43.15;;;15.45;;
33738;SDS011;20063;51.730;11.110;2023-03-03T04:12:35;24.83;;;14.55;;
33738;SDS011;20063;51.730;11.110;2023-03-03T04:15:08;27.02;;;15.43;;
33738;SDS011;20063;51.730;11.110;2023-03-03T04:17:36;28.80;;;16.33;;
33738;SDS011;20063;51.730;11.110;2023-03-03T04:20:01;25.85;;;14.48;;
33738;SDS011;20063;51.730;11.110;2023-03-03T04:22:28;34.00;;;15.23;;
33738;SDS011;20063;51.730;11.110;2023-03-03T04:24:57;29.27;;;16.35;;
33738;SDS011;20063;51.730;11.110;2023-03-03T04:27:29;30.83;;;16.05;;
33738;SDS011;20063;51.730;11.110;2023-03-03T04:29:56;31.73;;;16.92;;
33738;SDS011;20063;51.730;11.110;2023-03-03T04:32:21;29.90;;;15.15;;
33738;SDS011;20063;51.730;11.110;2023-03-03T04:34:47;26.45;;;15.27;;
33738;SDS011;20063;51.730;11.110;2023-03-03T04:37:12;24.90;;;14.68;;
33738;SDS011;20063;51.730;11.110;2023-03-03T04:39:38;23.88;;;12.80;;
33738;SDS011;20063;51.730;11.110;2023-03-03T04:42:03;26.17;;;13.90;;
33738;SDS011;20063;51.730;11.110;2023-03-03T04:44:30;26.00;;;14.82;;
33738;SDS011;20063;51.730;11.110;2023-03-03T04:46:56;31.92;;;15.05;;
33738;SDS011;20063;51.730;11.110;2023-03-03T04:49:21;24.25;;;13.82;;
33738;SDS011;20063;51.730;11.110;2023-03-03T04:51:47;27.65;;;14.98;;
33738;SDS011;20063;51.730;11.110;2023-03-03T04:54:12;28.63;;;15.20;;
33738;SDS011;20063;51.730;11.110;2023-03-03T04:56:38;28.17;;;15.50;;
33738;SDS011;20063;51.730;11.110;2023-03-03T04:59:04;31.23;;;15.50;;
33738;SDS011;20063;51.730;11.110;2023-03-03T05:01:29;25.42;;;14.05;;
33738;SDS011;20063;51.730;11.110;2023-03-03T05:03:55;26.60;;;13.80;;
33738;SDS011;20063;51.730;11.110;2023-03-03T05:06:21;26.13;;;14.63;;
33738;SDS011;20063;51.730;11.110;2023-03-03T05:08:46;27.60;;;15.35;;
33738;SDS011;20063;51.730;11.110;2023-03-03T05:11:12;27.08;;;15.05;;
33738;SDS011;20063;51.730;11.110;2023-03-03T05:13:38;30.50;;;16.35;;
33738;SDS011;20063;51.730;11.110;2023-03-03T05:16:03;30.70;;;15.57;;
33738;SDS011;20063;51.730;11.110;2023-03-03T05:18:29;29.92;;;15.88;;
33738;SDS011;20063;51.730;11.110;2023-03-03T05:20:55;34.15;;;17.55;;
33738;SDS011;20063;51.730;11.110;2023-03-03T05:23:21;32.30;;;16.40;;
33738;SDS011;20063;51.730;11.110;2023-03-03T05:25:47;34.22;;;17.13;;
33738;SDS011;20063;51.730;11.110;2023-03-03T05:28:13;41.13;;;18.73;;
33738;SDS011;20063;51.730;11.110;2023-03-03T05:30:39;34.28;;;17.80;;
33738;SDS011;20063;51.730;11.110;2023-03-03T05:33:04;37.60;;;18.98;;
33738;SDS011;20063;51.730;11.110;2023-03-03T05:35:31;38.95;;;18.50;;
33738;SDS011;20063;51.730;11.110;2023-03-03T05:37:57;36.90;;;18.02;;
33738;SDS011;20063;51.730;11.110;2023-03-03T05:40:23;35.60;;;17.40;;
33738;SDS011;20063;51.730;11.110;2023-03-03T05:42:50;46.17;;;19.70;;
33738;SDS011;20063;51.730;11.110;2023-03-03T05:45:16;41.88;;;19.08;;
33738;SDS011;20063;51.730;11.110;2023-03-03T05:47:44;43.45;;;19.95;;
33738;SDS011;20063;51.730;11.110;2023-03-03T05:50:10;43.40;;;18.92;;
33738;SDS011;20063;51.730;11.110;2023-03-03T05:52:36;59.10;;;19.40;;
33738;SDS011;20063;51.730;11.110;2023-03-03T05:55:02;41.38;;;20.02;;
33738;SDS011;20063;51.730;11.110;2023-03-03T05:57:28;46.33;;;19.83;;
33738;SDS011;20063;51.730;11.110;2023-03-03T05:59:54;47.72;;;21.20;;
33738;SDS011;20063;51.730;11.110;2023-03-03T06:02:22;47.75;;;20.90;;
33738;SDS011;20063;51.730;11.110;2023-03-03T06:04:48;41.70;;;18.80;;
33738;SDS011;20063;51.730;11.110;2023-03-03T06:07:13;47.13;;;20.90;;
33738;SDS011;20063;51.730;11.110;2023-03-03T06:09:39;45.70;;;19.55;;
33738;SDS011;20063;51.730;11.110;2023-03-03T06:12:05;44.67;;;19.05;;
33738;SDS011;20063;51.730;11.110;2023-03-03T06:14:31;42.80;;;19.23;;
33738;SDS011;20063;51.730;11.110;2023-03-03T06:16:57;46.30;;;20.90;;
33738;SDS011;20063;51.730;11.110;2023-03-03T06:19:22;50.50;;;22.13;;
33738;SDS011;20063;51.730;11.110;2023-03-03T06:21:48;48.17;;;21.52;;
33738;SDS011;20063;51.730;11.110;2023-03-03T06:24:14;42.40;;;18.83;;
33738;SDS011;20063;51.730;11.110;2023-03-03T06:26:41;44.95;;;21.05;;
33738;SDS011;20063;51.730;11.110;2023-03-03T06:29:07;50.17;;;22.17;;
33738;SDS011;20063;51.730;11.110;2023-03-03T06:31:33;50.55;;;21.45;;
33738;SDS011;20063;51.730;11.110;2023-03-03T06:33:58;43.15;;;19.98;;
33738;SDS011;20063;51.730;11.110;2023-03-03T06:36:24;48.33;;;20.60;;
33738;SDS011;20063;51.730;11.110;2023-03-03T06:38:50;42.00;;;18.17;;
33738;SDS011;20063;51.730;11.110;2023-03-03T06:41:15;45.65;;;18.85;;
33738;SDS011;20063;51.730;11.110;2023-03-03T06:43:41;39.65;;;18.67;;
33738;SDS011;20063;51.730;11.110;2023-03-03T06:46:07;50.78;;;20.20;;
33738;SDS011;20063;51.730;11.110;2023-03-03T06:48:33;49.20;;;20.15;;
33738;SDS011;20063;51.730;11.110;2023-03-03T06:50:59;40.80;;;18.55;;
33738;SDS011;20063;51.730;11.110;2023-03-03T06:53:27;45.00;;;19.73;;
33738;SDS011;20063;51.730;11.110;2023-03-03T06:55:55;49.22;;;19.23;;
33738;SDS011;20063;51.730;11.110;2023-03-03T06:58:23;45.97;;;19.83;;
33738;SDS011;20063;51.730;11.110;2023-03-03T07:00:53;46.75;;;20.55;;
33738;SDS011;20063;51.730;11.110;2023-03-03T07:03:39;55.30;;;20.15;;
33738;SDS011;20063;51.730;11.110;2023-03-03T07:06:07;42.65;;;19.58;;
33738;SDS011;20063;51.730;11.110;2023-03-03T07:08:54;52.75;;;21.35;;
33738;SDS011;20063;51.730;11.110;2023-03-03T07:11:26;59.75;;;23.65;;
33738;SDS011;20063;51.730;11.110;2023-03-03T07:13:52;57.17;;;22.83;;
33738;SDS011;20063;51.730;11.110;2023-03-03T07:16:24;60.88;;;23.92;;
33738;SDS011;20063;51.730;11.110;2023-03-03T07:18:52;57.15;;;23.88;;
33738;SDS011;20063;51.730;11.110;2023-03-03T07:21:35;53.08;;;23.02;;
33738;SDS011;20063;51.730;11.110;2023-03-03T07:24:21;50.03;;;22.65;;
33738;SDS011;20063;51.730;11.110;2023-03-03T07:26:53;50.10;;;21.25;;
33738;SDS011;20063;51.730;11.110;2023-03-03T07:29:35;48.30;;;19.90;;
33738;SDS011;20063;51.730;11.110;2023-03-03T07:32:12;47.13;;;20.67;;
33738;SDS011;20063;51.730;11.110;2023-03-03T07:34:47;40.42;;;16.30;;
33738;SDS011;20063;51.730;11.110;2023-03-03T07:37:17;40.20;;;14.82;;
33738;SDS011;20063;51.730;11.110;2023-03-03T07:39:45;42.03;;;15.63;;
33738;SDS011;20063;51.730;11.110;2023-03-03T07:42:23;40.25;;;16.80;;
33738;SDS011;20063;51.730;11.110;2023-03-03T07:44:52;39.20;;;17.40;;
33738;SDS011;20063;51.730;11.110;2023-03-03T07:47:26;49.03;;;21.48;;
33738;SDS011;20063;51.730;11.110;2023-03-03T07:49:55;112.43;;;42.67;;
33738;SDS011;20063;51.730;11.110;2023-03-03T07:52:31;55.25;;;21.33;;
33738;SDS011;20063;51.730;11.110;2023-03-03T07:55:33;76.95;;;30.55;;
33738;SDS011;20063;51.730;11.110;2023-03-03T08:03:13;40.80;;;17.05;;
33738;SDS011;20063;51.730;11.110;2023-03-03T08:05:42;51.30;;;18.40;;
33738;SDS011;20063;51.730;11.110;2023-03-03T08:11:00;37.65;;;15.50;;
33738;SDS011;20063;51.730;11.110;2023-03-03T08:18:44;37.33;;;15.57;;
33738;SDS011;20063;51.730;11.110;2023-03-03T08:23:47;42.70;;;16.25;;
33738;SDS011;20063;51.730;11.110;2023-03-03T08:26:17;37.53;;;15.63;;
33738;SDS011;20063;51.730;11.110;2023-03-03T08:28:45;34.38;;;15.57;;
33738;SDS011;20063;51.730;11.110;2023-03-03T08:31:11;33.03;;;15.57;;
33738;SDS011;20063;51.730;11.110;2023-03-03T08:33:37;37.13;;;16.92;;
33738;SDS011;20063;51.730;11.110;2023-03-03T08:36:06;31.23;;;14.15;;
33738;SDS011;20063;51.730;11.110;2023-03-03T08:38:32;32.45;;;14.57;;
33738;SDS011;20063;51.730;11.110;2023-03-03T08:40:58;33.22;;;14.05;;
33738;SDS011;20063;51.730;11.110;2023-03-03T08:43:24;29.50;;;14.35;;
33738;SDS011;20063;51.730;11.110;2023-03-03T08:45:51;33.67;;;15.05;;
33738;SDS011;20063;51.730;11.110;2023-03-03T08:48:18;32.80;;;14.73;;
33738;SDS011;20063;51.730;11.110;2023-03-03T08:50:45;27.35;;;13.70;;
33738;SDS011;20063;51.730;11.110;2023-03-03T08:53:11;35.60;;;14.38;;
33738;SDS011;20063;51.730;11.110;2023-03-03T08:55:37;30.42;;;13.73;;
33738;SDS011;20063;51.730;11.110;2023-03-03T08:58:03;27.73;;;14.63;;
33738;SDS011;20063;51.730;11.110;2023-03-03T09:00:29;35.17;;;17.20;;
33738;SDS011;20063;51.730;11.110;2023-03-03T09:02:55;29.48;;;14.18;;
33738;SDS011;20063;51.730;11.110;2023-03-03T09:05:21;24.67;;;12.55;;
33738;SDS011;20063;51.730;11.110;2023-03-03T09:07:47;35.40;;;16.38;;
33738;SDS011;20063;51.730;11.110;2023-03-03T09:10:16;37.92;;;16.90;;
33738;SDS011;20063;51.730;11.110;2023-03-03T09:12:45;33.88;;;15.80;;
33738;SDS011;20063;51.730;11.110;2023-03-03T09:18:37;32.80;;;15.57;;
33738;SDS011;20063;51.730;11.110;2023-03-03T09:20:53;32.83;;;16.55;;
33738;SDS011;20063;51.730;11.110;2023-03-03T09:28:52;36.60;;;17.33;;
33738;SDS011;20063;51.730;11.110;2023-03-03T09:33:50;48.30;;;20.30;;
33738;SDS011;20063;51.730;11.110;2023-03-03T09:38:47;42.97;;;19.33;;
33738;SDS011;20063;51.730;11.110;2023-03-03T09:56:08;52.42;;;22.70;;
33738;SDS011;20063;51.730;11.110;2023-03-03T09:58:48;47.53;;;21.70;;
33738;SDS011;20063;51.730;11.110;2023-03-03T10:17:50;47.90;;;20.95;;
33738;SDS011;20063;51.730;11.110;2023-03-03T10:37:40;51.95;;;21.48;;
33738;SDS011;20063;51.730;11.110;2023-03-03T10:43:04;60.00;;;25.05;;
33738;SDS011;20063;51.730;11.110;2023-03-03T10:46:09;57.63;;;24.50;;
33738;SDS011;20063;51.730;11.110;2023-03-03T11:02:14;48.88;;;21.10;;
33738;SDS011;20063;51.730;11.110;2023-03-03T11:10:13;57.40;;;24.85;;
33738;SDS011;20063;51.730;11.110;2023-03-03T11:12:59;50.70;;;23.60;;
33738;SDS011;20063;51.730;11.110;2023-03-03T11:18:09;58.30;;;23.38;;
33738;SDS011;20063;51.730;11.110;2023-03-03T11:24:03;54.83;;;23.30;;
33738;SDS011;20063;51.730;11.110;2023-03-03T11:26:45;57.70;;;22.02;;
33738;SDS011;20063;51.730;11.110;2023-03-03T11:29:23;52.47;;;22.05;;
33738;SDS011;20063;51.730;11.110;2023-03-03T11:31:56;52.30;;;22.92;;
33738;SDS011;20063;51.730;11.110;2023-03-03T11:37:04;48.17;;;22.10;;
33738;SDS011;20063;51.730;11.110;2023-03-03T11:39:51;48.25;;;21.52;;
33738;SDS011;20063;51.730;11.110;2023-03-03T11:42:46;46.67;;;21.70;;
33738;SDS011;20063;51.730;11.110;2023-03-03T11:45:19;51.33;;;21.77;;
33738;SDS011;20063;51.730;11.110;2023-03-03T11:48:14;48.15;;;22.05;;
33738;SDS011;20063;51.730;11.110;2023-03-03T11:53:31;42.08;;;19.88;;
33738;SDS011;20063;51.730;11.110;2023-03-03T11:56:44;44.10;;;20.13;;
33738;SDS011;20063;51.730;11.110;2023-03-03T12:05:10;43.28;;;21.50;;
33738;SDS011;20063;51.730;11.110;2023-03-03T12:07:54;42.58;;;20.13;;
33738;SDS011;20063;51.730;11.110;2023-03-03T12:10:31;43.53;;;21.23;;
33738;SDS011;20063;51.730;11.110;2023-03-03T12:13:39;37.13;;;19.13;;
33738;SDS011;20063;51.730;11.110;2023-03-03T12:16:14;39.88;;;19.08;;
33738;SDS011;20063;51.730;11.110;2023-03-03T12:21:45;43.13;;;18.70;;
33738;SDS011;20063;51.730;11.110;2023-03-03T12:24:25;51.55;;;19.98;;
33738;SDS011;20063;51.730;11.110;2023-03-03T12:29:40;46.38;;;19.95;;
33738;SDS011;20063;51.730;11.110;2023-03-03T12:35:35;39.03;;;19.05;;
33738;SDS011;20063;51.730;11.110;2023-03-03T12:38:22;37.35;;;19.30;;
33738;SDS011;20063;51.730;11.110;2023-03-03T12:41:21;46.17;;;21.20;;
33738;SDS011;20063;51.730;11.110;2023-03-03T12:46:32;47.35;;;19.23;;
33738;SDS011;20063;51.730;11.110;2023-03-03T12:49:07;46.75;;;20.38;;
33738;SDS011;20063;51.730;11.110;2023-03-03T12:51:36;41.58;;;19.17;;
33738;SDS011;20063;51.730;11.110;2023-03-03T12:54:27;50.55;;;22.00;;
33738;SDS011;20063;51.730;11.110;2023-03-03T13:00:12;45.58;;;21.10;;
33738;SDS011;20063;51.730;11.110;2023-03-03T13:07:56;48.30;;;19.63;;
33738;SDS011;20063;51.730;11.110;2023-03-03T13:10:37;54.35;;;20.20;;
33738;SDS011;20063;51.730;11.110;2023-03-03T13:13:23;48.53;;;20.63;;
33738;SDS011;20063;51.730;11.110;2023-03-03T13:16:09;48.55;;;20.23;;
33738;SDS011;20063;51.730;11.110;2023-03-03T13:24:04;53.10;;;22.63;;
33738;SDS011;20063;51.730;11.110;2023-03-03T13:26:45;45.28;;;20.48;;
33738;SDS011;20063;51.730;11.110;2023-03-03T13:29:26;47.88;;;19.77;;
33738;SDS011;20063;51.730;11.110;2023-03-03T13:32:00;49.88;;;20.40;;
33738;SDS011;20063;51.730;11.110;2023-03-03T13:37:20;53.78;;;20.77;;
33738;SDS011;20063;51.730;11.110;2023-03-03T13:45:02;54.50;;;22.33;;
33738;SDS011;20063;51.730;11.110;2023-03-03T13:47:42;48.30;;;21.75;;
33738;SDS011;20063;51.730;11.110;2023-03-03T13:50:22;46.08;;;20.63;;
33738;SDS011;20063;51.730;11.110;2023-03-03T13:58:20;54.65;;;22.13;;
33738;SDS011;20063;51.730;11.110;2023-03-03T14:06:37;53.22;;;21.73;;
33738;SDS011;20063;51.730;11.110;2023-03-03T14:09:11;46.20;;;20.17;;
33738;SDS011;20063;51.730;11.110;2023-03-03T14:12:13;46.80;;;19.75;;
33738;SDS011;20063;51.730;11.110;2023-03-03T14:20:48;49.40;;;23.50;;
33738;SDS011;20063;51.730;11.110;2023-03-03T14:23:18;61.13;;;30.17;;
33738;SDS011;20063;51.730;11.110;2023-03-03T14:28:36;49.83;;;22.17;;
33738;SDS011;20063;51.730;11.110;2023-03-03T14:31:41;50.45;;;21.88;;
33738;SDS011;20063;51.730;11.110;2023-03-03T14:34:14;48.92;;;22.35;;
33738;SDS011;20063;51.730;11.110;2023-03-03T14:36:58;56.17;;;23.48;;
33738;SDS011;20063;51.730;11.110;2023-03-03T14:39:42;51.03;;;22.25;;
33738;SDS011;20063;51.730;11.110;2023-03-03T14:42:12;50.47;;;23.83;;
33738;SDS011;20063;51.730;11.110;2023-03-03T14:44:54;55.30;;;24.77;;
33738;SDS011;20063;51.730;11.110;2023-03-03T14:47:21;48.10;;;23.88;;
33738;SDS011;20063;51.730;11.110;2023-03-03T14:49:49;58.03;;;26.48;;
33738;SDS011;20063;51.730;11.110;2023-03-03T14:54:45;59.97;;;25.23;;
33738;SDS011;20063;51.730;11.110;2023-03-03T14:59:53;56.03;;;24.55;;
33738;SDS011;20063;51.730;11.110;2023-03-03T15:04:52;61.42;;;27.02;;
33738;SDS011;20063;51.730;11.110;2023-03-03T15:07:52;54.88;;;26.10;;
33738;SDS011;20063;51.730;11.110;2023-03-03T15:10:27;67.03;;;30.85;;
33738;SDS011;20063;51.730;11.110;2023-03-03T15:16:00;68.07;;;32.17;;
33738;SDS011;20063;51.730;11.110;2023-03-03T15:18:29;66.82;;;32.20;;
33738;SDS011;20063;51.730;11.110;2023-03-03T15:26:23;75.95;;;33.95;;
33738;SDS011;20063;51.730;11.110;2023-03-03T15:37:05;101.47;;;42.83;;
33738;SDS011;20063;51.730;11.110;2023-03-03T15:39:41;97.13;;;41.47;;
33738;SDS011;20063;51.730;11.110;2023-03-03T15:50:32;115.97;;;44.75;;
33738;SDS011;20063;51.730;11.110;2023-03-03T15:56:24;114.53;;;48.75;;
33738;SDS011;20063;51.730;11.110;2023-03-03T16:04:47;105.43;;;46.92;;
33738;SDS011;20063;51.730;11.110;2023-03-03T16:07:30;103.30;;;45.10;;
33738;SDS011;20063;51.730;11.110;2023-03-03T16:23:45;99.22;;;44.10;;
33738;SDS011;20063;51.730;11.110;2023-03-03T16:26:17;101.68;;;44.13;;
33738;SDS011;20063;51.730;11.110;2023-03-03T16:44:29;109.22;;;49.92;;
33738;SDS011;20063;51.730;11.110;2023-03-03T16:50:09;117.65;;;49.35;;
33738;SDS011;20063;51.730;11.110;2023-03-03T16:52:47;107.70;;;48.85;;
33738;SDS011;20063;51.730;11.110;2023-03-03T16:55:24;119.35;;;52.05;;
33738;SDS011;20063;51.730;11.110;2023-03-03T17:00:56;110.47;;;49.35;;
33738;SDS011;20063;51.730;11.110;2023-03-03T17:19:27;78.07;;;33.22;;
33738;SDS011;20063;51.730;11.110;2023-03-03T17:25:20;60.42;;;29.23;;
33738;SDS011;20063;51.730;11.110;2023-03-03T17:41:26;62.28;;;29.38;;
33738;SDS011;20063;51.730;11.110;2023-03-03T17:46:56;73.45;;;36.80;;
33738;SDS011;20063;51.730;11.110;2023-03-03T17:52:13;92.53;;;38.97;;
33738;SDS011;20063;51.730;11.110;2023-03-03T17:55:05;101.00;;;42.60;;
33738;SDS011;20063;51.730;11.110;2023-03-03T18:15:41;101.65;;;44.60;;
33738;SDS011;20063;51.730;11.110;2023-03-03T18:21:21;75.68;;;34.08;;
33738;SDS011;20063;51.730;11.110;2023-03-03T18:23:58;69.82;;;31.20;;
33738;SDS011;20063;51.730;11.110;2023-03-03T18:27:04;65.68;;;30.98;;
33738;SDS011;20063;51.730;11.110;2023-03-03T18:29:39;78.65;;;35.33;;
33738;SDS011;20063;51.730;11.110;2023-03-03T18:35:36;59.80;;;28.45;;
33738;SDS011;20063;51.730;11.110;2023-03-03T18:43:46;66.68;;;31.00;;
33738;SDS011;20063;51.730;11.110;2023-03-03T18:59:41;75.72;;;30.45;;
33738;SDS011;20063;51.730;11.110;2023-03-03T19:12:41;83.28;;;33.25;;
33738;SDS011;20063;51.730;11.110;2023-03-03T19:20:53;85.95;;;40.35;;
33738;SDS011;20063;51.730;11.110;2023-03-03T19:43:15;71.15;;;33.22;;
33738;SDS011;20063;51.730;11.110;2023-03-03T19:45:57;67.97;;;30.95;;
33738;SDS011;20063;51.730;11.110;2023-03-03T19:48:59;72.07;;;32.40;;
33738;SDS011;20063;51.730;11.110;2023-03-03T19:54:23;64.43;;;28.10;;
33738;SDS011;20063;51.730;11.110;2023-03-03T19:57:20;58.88;;;29.23;;
33738;SDS011;20063;51.730;11.110;2023-03-03T19:59:56;60.92;;;28.92;;
33738;SDS011;20063;51.730;11.110;2023-03-03T20:08:09;93.60;;;41.95;;
33738;SDS011;20063;51.730;11.110;2023-03-03T20:13:28;80.45;;;36.63;;
33738;SDS011;20063;51.730;11.110;2023-03-03T20:16:11;73.95;;;37.13;;
33738;SDS011;20063;51.730;11.110;2023-03-03T20:21:59;70.47;;;34.97;;
33738;SDS011;20063;51.730;11.110;2023-03-03T20:24:34;58.55;;;28.17;;
33738;SDS011;20063;51.730;11.110;2023-03-03T20:27:13;55.65;;;28.52;;
33738;SDS011;20063;51.730;11.110;2023-03-03T20:32:51;50.25;;;24.92;;
33738;SDS011;20063;51.730;11.110;2023-03-03T20:35:43;50.20;;;25.27;;
33738;SDS011;20063;51.730;11.110;2023-03-03T20:49:08;51.80;;;22.42;;
33738;SDS011;20063;51.730;11.110;2023-03-03T20:51:54;42.83;;;20.83;;
33738;SDS011;20063;51.730;11.110;2023-03-03T20:57:07;38.80;;;18.67;;
33738;SDS011;20063;51.730;11.110;2023-03-03T21:02:21;40.95;;;19.20;;
33738;SDS011;20063;51.730;11.110;2023-03-03T21:05:11;42.20;;;20.02;;
33738;SDS011;20063;51.730;11.110;2023-03-03T21:07:53;35.53;;;18.52;;
33738;SDS011;20063;51.730;11.110;2023-03-03T21:10:27;38.97;;;19.48;;
33738;SDS011;20063;51.730;11.110;2023-03-03T21:13:20;48.85;;;20.98;;
33738;SDS011;20063;51.730;11.110;2023-03-03T21:16:04;36.45;;;18.42;;
33738;SDS011;20063;51.730;11.110;2023-03-03T21:21:22;36.97;;;16.73;;
33738;SDS011;20063;51.730;11.110;2023-03-03T21:23:49;36.95;;;15.52;;
33738;SDS011;20063;51.730;11.110;2023-03-03T21:26:42;35.92;;;16.25;;
33738;SDS011;20063;51.730;11.110;2023-03-03T21:29:20;29.50;;;16.55;;
33738;SDS011;20063;51.730;11.110;2023-03-03T21:31:59;24.73;;;14.45;;